sensor_id;sensor_type;location;lat;lon;timestamp;P1;durP1;ratioP1;P2;durP2;ratioP2
38615;SDS011;24370;51.986;4.666;2022-10-16T00:01:12;5.80;;;1.20;;
38615;SDS011;24370;51.986;4.666;2022-10-16T00:03:39;4.05;;;1.48;;
38615;SDS011;24370;51.986;4.666;2022-10-16T00:06:06;3.97;;;1.20;;
38615;SDS011;24370;51.986;4.666;2022-10-16T00:08:32;3.30;;;1.27;;
38615;SDS011;24370;51.986;4.666;2022-10-16T00:11:01;3.33;;;1.30;;
38615;SDS011;24370;51.986;4.666;2022-10-16T00:13:28;6.72;;;1.92;;
38615;SDS011;24370;51.986;4.666;2022-10-16T00:15:54;2.30;;;1.25;;
38615;SDS011;24370;51.986;4.666;2022-10-16T00:18:21;4.97;;;1.67;;
38615;SDS011;24370;51.986;4.666;2022-10-16T00:20:46;3.55;;;1.50;;
38615;SDS011;24370;51.986;4.666;2022-10-16T00:23:11;3.90;;;1.60;;
38615;SDS011;24370;51.986;4.666;2022-10-16T00:25:37;4.95;;;1.45;;
38615;SDS011;24370;51.986;4.666;2022-10-16T00:28:02;3.97;;;1.50;;
38615;SDS011;24370;51.986;4.666;2022-10-16T00:30:28;2.47;;;1.15;;
38615;SDS011;24370;51.986;4.666;2022-10-16T00:32:54;3.17;;;1.20;;
38615;SDS011;24370;51.986;4.666;2022-10-16T00:35:20;2.67;;;1.33;;
38615;SDS011;24370;51.986;4.666;2022-10-16T00:37:45;2.97;;;1.20;;
38615;SDS011;24370;51.986;4.666;2022-10-16T00:40:11;2.55;;;0.93;;
38615;SDS011;24370;51.986;4.666;2022-10-16T00:42:36;5.07;;;1.20;;
38615;SDS011;24370;51.986;4.666;2022-10-16T00:45:03;5.38;;;1.27;;
38615;SDS011;24370;51.986;4.666;2022-10-16T00:47:30;5.18;;;1.55;;
38615;SDS011;24370;51.986;4.666;2022-10-16T00:50:06;4.60;;;1.85;;
38615;SDS011;24370;51.986;4.666;2022-10-16T00:52:36;5.10;;;1.40;;
38615;SDS011;24370;51.986;4.666;2022-10-16T00:55:06;1.40;;;1.20;;
38615;SDS011;24370;51.986;4.666;2022-10-16T00:57:34;5.20;;;1.30;;
38615;SDS011;24370;51.986;4.666;2022-10-16T01:00:00;4.38;;;2.08;;
38615;SDS011;24370;51.986;4.666;2022-10-16T01:02:28;3.47;;;1.40;;
38615;SDS011;24370;51.986;4.666;2022-10-16T01:04:53;3.85;;;1.70;;
38615;SDS011;24370;51.986;4.666;2022-10-16T01:13:32;1.50;;;1.23;;
38615;SDS011;24370;51.986;4.666;2022-10-16T01:16:05;3.30;;;1.70;;
38615;SDS011;24370;51.986;4.666;2022-10-16T01:18:52;3.20;;;1.50;;
38615;SDS011;24370;51.986;4.666;2022-10-16T01:21:23;2.40;;;1.67;;
38615;SDS011;24370;51.986;4.666;2022-10-16T01:29:16;3.00;;;1.58;;
38615;SDS011;24370;51.986;4.666;2022-10-16T01:31:47;3.53;;;1.45;;
38615;SDS011;24370;51.986;4.666;2022-10-16T01:34:20;3.10;;;1.58;;
38615;SDS011;24370;51.986;4.666;2022-10-16T01:36:55;2.05;;;1.20;;
38615;SDS011;24370;51.986;4.666;2022-10-16T01:39:27;4.53;;;1.45;;
38615;SDS011;24370;51.986;4.666;2022-10-16T01:42:16;7.47;;;1.70;;
38615;SDS011;24370;51.986;4.666;2022-10-16T01:44:51;4.00;;;1.55;;
38615;SDS011;24370;51.986;4.666;2022-10-16T01:47:18;2.17;;;1.58;;
38615;SDS011;24370;51.986;4.666;2022-10-16T01:49:48;6.00;;;1.70;;
38615;SDS011;24370;51.986;4.666;2022-10-16T01:52:17;5.72;;;1.70;;
38615;SDS011;24370;51.986;4.666;2022-10-16T01:54:46;2.88;;;1.42;;
38615;SDS011;24370;51.986;4.666;2022-10-16T01:57:15;4.82;;;1.60;;
38615;SDS011;24370;51.986;4.666;2022-10-16T01:59:43;2.78;;;1.80;;
38615;SDS011;24370;51.986;4.666;2022-10-16T02:02:12;4.88;;;2.10;;
38615;SDS011;24370;51.986;4.666;2022-10-16T02:04:42;4.53;;;2.00;;
38615;SDS011;24370;51.986;4.666;2022-10-16T02:07:11;2.83;;;1.77;;
38615;SDS011;24370;51.986;4.666;2022-10-16T02:09:37;2.60;;;2.00;;
38615;SDS011;24370;51.986;4.666;2022-10-16T02:12:06;2.58;;;2.00;;
38615;SDS011;24370;51.986;4.666;2022-10-16T02:14:37;3.15;;;2.03;;
38615;SDS011;24370;51.986;4.666;2022-10-16T02:17:10;5.10;;;2.10;;
38615;SDS011;24370;51.986;4.666;2022-10-16T02:19:38;4.78;;;1.98;;
38615;SDS011;24370;51.986;4.666;2022-10-16T02:22:04;3.38;;;2.63;;
38615;SDS011;24370;51.986;4.666;2022-10-16T02:27:47;8.05;;;2.22;;
38615;SDS011;24370;51.986;4.666;2022-10-16T02:30:12;6.97;;;2.10;;
38615;SDS011;24370;51.986;4.666;2022-10-16T02:32:42;4.50;;;1.98;;
38615;SDS011;24370;51.986;4.666;2022-10-16T02:35:11;5.05;;;2.10;;
38615;SDS011;24370;51.986;4.666;2022-10-16T02:37:37;6.75;;;2.25;;
38615;SDS011;24370;51.986;4.666;2022-10-16T02:40:05;3.20;;;1.50;;
38615;SDS011;24370;51.986;4.666;2022-10-16T02:42:36;4.25;;;1.90;;
38615;SDS011;24370;51.986;4.666;2022-10-16T02:45:04;2.28;;;1.95;;
38615;SDS011;24370;51.986;4.666;2022-10-16T02:47:30;3.75;;;1.77;;
38615;SDS011;24370;51.986;4.666;2022-10-16T02:49:56;6.22;;;2.08;;
38615;SDS011;24370;51.986;4.666;2022-10-16T02:52:21;3.92;;;1.90;;
38615;SDS011;24370;51.986;4.666;2022-10-16T02:54:47;3.80;;;1.85;;
38615;SDS011;24370;51.986;4.666;2022-10-16T02:57:12;8.90;;;2.13;;
38615;SDS011;24370;51.986;4.666;2022-10-16T02:59:38;2.70;;;1.73;;
38615;SDS011;24370;51.986;4.666;2022-10-16T03:02:03;1.58;;;1.40;;
38615;SDS011;24370;51.986;4.666;2022-10-16T03:04:29;4.47;;;1.95;;
38615;SDS011;24370;51.986;4.666;2022-10-16T03:06:54;9.32;;;1.80;;
38615;SDS011;24370;51.986;4.666;2022-10-16T03:09:19;2.88;;;1.38;;
38615;SDS011;24370;51.986;4.666;2022-10-16T03:11:45;3.05;;;1.73;;
38615;SDS011;24370;51.986;4.666;2022-10-16T03:14:10;4.72;;;1.75;;
38615;SDS011;24370;51.986;4.666;2022-10-16T03:16:35;2.58;;;1.40;;
38615;SDS011;24370;51.986;4.666;2022-10-16T03:19:01;3.22;;;1.80;;
38615;SDS011;24370;51.986;4.666;2022-10-16T03:21:26;5.18;;;1.83;;
38615;SDS011;24370;51.986;4.666;2022-10-16T03:23:52;3.65;;;2.15;;
38615;SDS011;24370;51.986;4.666;2022-10-16T03:26:17;4.22;;;1.75;;
38615;SDS011;24370;51.986;4.666;2022-10-16T03:28:42;3.92;;;1.67;;
38615;SDS011;24370;51.986;4.666;2022-10-16T03:31:08;6.13;;;1.85;;
38615;SDS011;24370;51.986;4.666;2022-10-16T03:33:33;3.00;;;2.05;;
38615;SDS011;24370;51.986;4.666;2022-10-16T03:35:59;4.85;;;1.67;;
38615;SDS011;24370;51.986;4.666;2022-10-16T03:38:25;4.60;;;1.73;;
38615;SDS011;24370;51.986;4.666;2022-10-16T03:40:50;3.50;;;2.00;;
38615;SDS011;24370;51.986;4.666;2022-10-16T03:43:15;3.70;;;1.95;;
38615;SDS011;24370;51.986;4.666;2022-10-16T03:45:41;3.90;;;1.88;;
38615;SDS011;24370;51.986;4.666;2022-10-16T03:48:06;4.38;;;1.42;;
38615;SDS011;24370;51.986;4.666;2022-10-16T03:50:32;1.70;;;1.52;;
38615;SDS011;24370;51.986;4.666;2022-10-16T03:52:57;1.85;;;1.60;;
38615;SDS011;24370;51.986;4.666;2022-10-16T03:55:22;4.80;;;1.60;;
38615;SDS011;24370;51.986;4.666;2022-10-16T03:57:48;6.95;;;1.83;;
38615;SDS011;24370;51.986;4.666;2022-10-16T04:00:13;3.15;;;1.75;;
38615;SDS011;24370;51.986;4.666;2022-10-16T04:02:39;2.90;;;1.45;;
38615;SDS011;24370;51.986;4.666;2022-10-16T04:05:05;2.53;;;1.30;;
38615;SDS011;24370;51.986;4.666;2022-10-16T04:07:30;3.03;;;1.30;;
38615;SDS011;24370;51.986;4.666;2022-10-16T04:09:56;1.95;;;1.52;;
38615;SDS011;24370;51.986;4.666;2022-10-16T04:12:22;4.35;;;1.48;;
38615;SDS011;24370;51.986;4.666;2022-10-16T04:14:48;3.47;;;1.48;;
38615;SDS011;24370;51.986;4.666;2022-10-16T04:17:13;4.57;;;1.42;;
38615;SDS011;24370;51.986;4.666;2022-10-16T04:19:38;5.10;;;1.30;;
38615;SDS011;24370;51.986;4.666;2022-10-16T04:22:04;4.30;;;1.77;;
38615;SDS011;24370;51.986;4.666;2022-10-16T04:24:29;4.07;;;1.40;;
38615;SDS011;24370;51.986;4.666;2022-10-16T04:26:55;4.20;;;1.25;;
38615;SDS011;24370;51.986;4.666;2022-10-16T04:29:20;3.92;;;1.40;;
38615;SDS011;24370;51.986;4.666;2022-10-16T04:31:46;4.35;;;1.70;;
38615;SDS011;24370;51.986;4.666;2022-10-16T04:34:11;2.75;;;1.40;;
38615;SDS011;24370;51.986;4.666;2022-10-16T04:36:37;10.07;;;1.73;;
38615;SDS011;24370;51.986;4.666;2022-10-16T04:39:02;7.05;;;1.40;;
38615;SDS011;24370;51.986;4.666;2022-10-16T04:41:28;3.10;;;1.35;;
38615;SDS011;24370;51.986;4.666;2022-10-16T04:43:53;4.50;;;1.63;;
38615;SDS011;24370;51.986;4.666;2022-10-16T04:46:18;5.18;;;1.38;;
38615;SDS011;24370;51.986;4.666;2022-10-16T04:48:44;4.00;;;1.30;;
38615;SDS011;24370;51.986;4.666;2022-10-16T04:51:09;3.55;;;1.50;;
38615;SDS011;24370;51.986;4.666;2022-10-16T04:53:35;5.30;;;1.48;;
38615;SDS011;24370;51.986;4.666;2022-10-16T04:56:00;5.10;;;1.52;;
38615;SDS011;24370;51.986;4.666;2022-10-16T04:58:25;1.55;;;1.42;;
38615;SDS011;24370;51.986;4.666;2022-10-16T05:00:51;3.92;;;1.55;;
38615;SDS011;24370;51.986;4.666;2022-10-16T05:03:16;2.50;;;1.50;;
38615;SDS011;24370;51.986;4.666;2022-10-16T05:05:42;4.65;;;1.77;;
38615;SDS011;24370;51.986;4.666;2022-10-16T05:08:09;2.17;;;1.15;;
38615;SDS011;24370;51.986;4.666;2022-10-16T05:10:34;3.65;;;1.40;;
38615;SDS011;24370;51.986;4.666;2022-10-16T05:12:59;4.35;;;1.40;;
38615;SDS011;24370;51.986;4.666;2022-10-16T05:15:25;3.78;;;1.92;;
38615;SDS011;24370;51.986;4.666;2022-10-16T05:17:54;4.93;;;1.42;;
38615;SDS011;24370;51.986;4.666;2022-10-16T05:20:20;3.35;;;1.58;;
38615;SDS011;24370;51.986;4.666;2022-10-16T05:22:47;7.35;;;1.77;;
38615;SDS011;24370;51.986;4.666;2022-10-16T05:25:12;3.08;;;1.20;;
38615;SDS011;24370;51.986;4.666;2022-10-16T05:27:38;2.33;;;1.70;;
38615;SDS011;24370;51.986;4.666;2022-10-16T05:30:03;3.35;;;1.40;;
38615;SDS011;24370;51.986;4.666;2022-10-16T05:32:29;4.82;;;1.80;;
38615;SDS011;24370;51.986;4.666;2022-10-16T05:34:54;7.20;;;1.60;;
38615;SDS011;24370;51.986;4.666;2022-10-16T05:37:19;5.43;;;1.38;;
38615;SDS011;24370;51.986;4.666;2022-10-16T05:39:45;4.78;;;1.73;;
38615;SDS011;24370;51.986;4.666;2022-10-16T05:42:10;2.63;;;1.40;;
38615;SDS011;24370;51.986;4.666;2022-10-16T05:44:35;8.38;;;1.50;;
38615;SDS011;24370;51.986;4.666;2022-10-16T05:47:01;2.45;;;1.30;;
38615;SDS011;24370;51.986;4.666;2022-10-16T05:49:26;3.33;;;1.27;;
38615;SDS011;24370;51.986;4.666;2022-10-16T05:51:52;4.60;;;1.67;;
38615;SDS011;24370;51.986;4.666;2022-10-16T05:54:17;6.47;;;1.60;;
38615;SDS011;24370;51.986;4.666;2022-10-16T05:56:42;8.43;;;1.50;;
38615;SDS011;24370;51.986;4.666;2022-10-16T05:59:08;3.95;;;1.40;;
38615;SDS011;24370;51.986;4.666;2022-10-16T06:01:33;4.72;;;1.40;;
38615;SDS011;24370;51.986;4.666;2022-10-16T06:04:00;5.25;;;1.40;;
38615;SDS011;24370;51.986;4.666;2022-10-16T06:06:27;2.63;;;1.50;;
38615;SDS011;24370;51.986;4.666;2022-10-16T06:08:55;6.70;;;1.45;;
38615;SDS011;24370;51.986;4.666;2022-10-16T06:11:22;4.40;;;1.40;;
38615;SDS011;24370;51.986;4.666;2022-10-16T06:13:50;5.65;;;1.60;;
38615;SDS011;24370;51.986;4.666;2022-10-16T06:16:16;3.78;;;1.50;;
38615;SDS011;24370;51.986;4.666;2022-10-16T06:18:41;1.75;;;1.17;;
38615;SDS011;24370;51.986;4.666;2022-10-16T06:21:11;6.50;;;1.77;;
38615;SDS011;24370;51.986;4.666;2022-10-16T06:23:41;3.92;;;1.75;;
38615;SDS011;24370;51.986;4.666;2022-10-16T06:26:07;2.45;;;0.93;;
38615;SDS011;24370;51.986;4.666;2022-10-16T06:28:37;6.10;;;1.17;;
38615;SDS011;24370;51.986;4.666;2022-10-16T06:31:04;7.93;;;1.35;;
38615;SDS011;24370;51.986;4.666;2022-10-16T06:33:30;2.05;;;0.75;;
38615;SDS011;24370;51.986;4.666;2022-10-16T06:36:00;2.65;;;0.70;;
38615;SDS011;24370;51.986;4.666;2022-10-16T06:38:27;3.90;;;0.85;;
38615;SDS011;24370;51.986;4.666;2022-10-16T06:40:53;3.85;;;0.80;;
38615;SDS011;24370;51.986;4.666;2022-10-16T06:43:18;3.70;;;0.90;;
38615;SDS011;24370;51.986;4.666;2022-10-16T06:45:49;3.17;;;0.73;;
38615;SDS011;24370;51.986;4.666;2022-10-16T06:48:18;4.10;;;0.98;;
38615;SDS011;24370;51.986;4.666;2022-10-16T06:50:44;6.03;;;1.23;;
38615;SDS011;24370;51.986;4.666;2022-10-16T06:53:19;5.50;;;1.45;;
38615;SDS011;24370;51.986;4.666;2022-10-16T06:55:44;4.28;;;1.10;;
38615;SDS011;24370;51.986;4.666;2022-10-16T06:58:10;5.03;;;1.30;;
38615;SDS011;24370;51.986;4.666;2022-10-16T07:00:35;3.00;;;1.17;;
38615;SDS011;24370;51.986;4.666;2022-10-16T07:03:00;5.20;;;1.05;;
38615;SDS011;24370;51.986;4.666;2022-10-16T07:05:26;3.50;;;1.45;;
38615;SDS011;24370;51.986;4.666;2022-10-16T07:07:51;3.45;;;0.93;;
38615;SDS011;24370;51.986;4.666;2022-10-16T07:10:17;5.10;;;1.30;;
38615;SDS011;24370;51.986;4.666;2022-10-16T07:12:42;4.97;;;1.30;;
38615;SDS011;24370;51.986;4.666;2022-10-16T07:15:10;4.78;;;1.50;;
38615;SDS011;24370;51.986;4.666;2022-10-16T07:17:35;7.85;;;1.35;;
38615;SDS011;24370;51.986;4.666;2022-10-16T07:20:01;9.63;;;1.23;;
38615;SDS011;24370;51.986;4.666;2022-10-16T07:22:27;2.83;;;1.20;;
38615;SDS011;24370;51.986;4.666;2022-10-16T07:24:53;9.48;;;1.70;;
38615;SDS011;24370;51.986;4.666;2022-10-16T07:27:18;2.50;;;1.42;;
38615;SDS011;24370;51.986;4.666;2022-10-16T07:29:44;9.05;;;2.20;;
38615;SDS011;24370;51.986;4.666;2022-10-16T07:32:09;7.07;;;1.67;;
38615;SDS011;24370;51.986;4.666;2022-10-16T07:34:35;3.25;;;1.60;;
38615;SDS011;24370;51.986;4.666;2022-10-16T07:37:00;2.53;;;1.42;;
38615;SDS011;24370;51.986;4.666;2022-10-16T07:39:25;7.20;;;1.95;;
38615;SDS011;24370;51.986;4.666;2022-10-16T07:41:51;4.25;;;1.73;;
38615;SDS011;24370;51.986;4.666;2022-10-16T07:44:16;6.47;;;1.45;;
38615;SDS011;24370;51.986;4.666;2022-10-16T07:46:41;7.75;;;1.95;;
38615;SDS011;24370;51.986;4.666;2022-10-16T07:49:08;7.03;;;1.80;;
38615;SDS011;24370;51.986;4.666;2022-10-16T07:51:33;7.20;;;1.70;;
38615;SDS011;24370;51.986;4.666;2022-10-16T07:53:59;6.30;;;1.40;;
38615;SDS011;24370;51.986;4.666;2022-10-16T07:56:24;5.43;;;1.27;;
38615;SDS011;24370;51.986;4.666;2022-10-16T07:58:49;7.82;;;1.50;;
38615;SDS011;24370;51.986;4.666;2022-10-16T08:01:16;3.03;;;1.52;;
38615;SDS011;24370;51.986;4.666;2022-10-16T08:03:47;5.47;;;1.13;;
38615;SDS011;24370;51.986;4.666;2022-10-16T08:06:14;7.82;;;1.20;;
38615;SDS011;24370;51.986;4.666;2022-10-16T08:08:40;2.03;;;1.05;;
38615;SDS011;24370;51.986;4.666;2022-10-16T08:11:06;10.02;;;1.73;;
38615;SDS011;24370;51.986;4.666;2022-10-16T08:13:31;2.47;;;1.10;;
38615;SDS011;24370;51.986;4.666;2022-10-16T08:15:57;6.93;;;1.33;;
38615;SDS011;24370;51.986;4.666;2022-10-16T08:18:22;3.38;;;1.10;;
38615;SDS011;24370;51.986;4.666;2022-10-16T08:20:54;4.35;;;1.10;;
38615;SDS011;24370;51.986;4.666;2022-10-16T08:23:20;4.15;;;1.40;;
38615;SDS011;24370;51.986;4.666;2022-10-16T08:25:45;8.98;;;1.40;;
38615;SDS011;24370;51.986;4.666;2022-10-16T08:28:11;5.15;;;1.40;;
38615;SDS011;24370;51.986;4.666;2022-10-16T08:30:36;8.38;;;1.30;;
38615;SDS011;24370;51.986;4.666;2022-10-16T08:33:02;8.48;;;1.67;;
38615;SDS011;24370;51.986;4.666;2022-10-16T08:35:28;10.68;;;1.45;;
38615;SDS011;24370;51.986;4.666;2022-10-16T08:37:53;6.93;;;2.05;;
38615;SDS011;24370;51.986;4.666;2022-10-16T08:40:20;7.82;;;1.83;;
38615;SDS011;24370;51.986;4.666;2022-10-16T08:48:49;11.48;;;2.35;;
38615;SDS011;24370;51.986;4.666;2022-10-16T08:51:20;27.70;;;2.25;;
38615;SDS011;24370;51.986;4.666;2022-10-16T08:56:22;9.65;;;1.85;;
38615;SDS011;24370;51.986;4.666;2022-10-16T08:58:49;11.90;;;2.10;;
38615;SDS011;24370;51.986;4.666;2022-10-16T09:01:17;7.18;;;2.08;;
38615;SDS011;24370;51.986;4.666;2022-10-16T09:16:42;8.57;;;2.00;;
38615;SDS011;24370;51.986;4.666;2022-10-16T09:19:22;8.18;;;1.73;;
38615;SDS011;24370;51.986;4.666;2022-10-16T09:21:53;9.10;;;1.58;;
38615;SDS011;24370;51.986;4.666;2022-10-16T09:24:21;12.50;;;1.70;;
38615;SDS011;24370;51.986;4.666;2022-10-16T09:26:49;11.52;;;1.98;;
38615;SDS011;24370;51.986;4.666;2022-10-16T09:29:15;6.82;;;1.73;;
38615;SDS011;24370;51.986;4.666;2022-10-16T09:31:44;9.00;;;1.88;;
38615;SDS011;24370;51.986;4.666;2022-10-16T09:34:24;3.92;;;1.52;;
38615;SDS011;24370;51.986;4.666;2022-10-16T09:36:57;13.77;;;1.90;;
38615;SDS011;24370;51.986;4.666;2022-10-16T09:39:24;8.40;;;1.30;;
38615;SDS011;24370;51.986;4.666;2022-10-16T09:41:50;7.07;;;1.70;;
38615;SDS011;24370;51.986;4.666;2022-10-16T09:47:00;9.55;;;1.90;;
38615;SDS011;24370;51.986;4.666;2022-10-16T09:49:27;9.50;;;1.85;;
38615;SDS011;24370;51.986;4.666;2022-10-16T09:54:58;11.80;;;3.05;;
38615;SDS011;24370;51.986;4.666;2022-10-16T09:57:34;8.35;;;1.50;;
38615;SDS011;24370;51.986;4.666;2022-10-16T09:59:59;8.57;;;2.15;;
38615;SDS011;24370;51.986;4.666;2022-10-16T10:02:34;12.95;;;2.05;;
38615;SDS011;24370;51.986;4.666;2022-10-16T10:05:04;11.02;;;2.20;;
38615;SDS011;24370;51.986;4.666;2022-10-16T10:07:42;7.53;;;1.70;;
38615;SDS011;24370;51.986;4.666;2022-10-16T10:10:19;12.00;;;2.15;;
38615;SDS011;24370;51.986;4.666;2022-10-16T10:12:47;6.70;;;1.63;;
38615;SDS011;24370;51.986;4.666;2022-10-16T10:15:13;9.10;;;1.52;;
38615;SDS011;24370;51.986;4.666;2022-10-16T10:17:56;11.10;;;2.13;;
38615;SDS011;24370;51.986;4.666;2022-10-16T10:23:22;9.82;;;1.77;;
38615;SDS011;24370;51.986;4.666;2022-10-16T10:28:53;7.90;;;1.37;;
38615;SDS011;24370;51.986;4.666;2022-10-16T10:36:50;11.55;;;1.50;;
38615;SDS011;24370;51.986;4.666;2022-10-16T10:39:40;10.15;;;1.80;;
38615;SDS011;24370;51.986;4.666;2022-10-16T10:50:30;9.60;;;2.13;;
38615;SDS011;24370;51.986;4.666;2022-10-16T11:00:57;9.90;;;1.88;;
38615;SDS011;24370;51.986;4.666;2022-10-16T11:11:46;10.43;;;2.65;;
38615;SDS011;24370;51.986;4.666;2022-10-16T11:17:11;12.60;;;1.95;;
38615;SDS011;24370;51.986;4.666;2022-10-16T11:19:45;11.55;;;2.10;;
38615;SDS011;24370;51.986;4.666;2022-10-16T11:25:06;8.88;;;1.10;;
38615;SDS011;24370;51.986;4.666;2022-10-16T11:28:06;11.27;;;1.95;;
38615;SDS011;24370;51.986;4.666;2022-10-16T11:30:57;8.93;;;1.48;;
38615;SDS011;24370;51.986;4.666;2022-10-16T11:36:19;18.15;;;1.60;;
38615;SDS011;24370;51.986;4.666;2022-10-16T11:41:32;9.85;;;1.50;;
38615;SDS011;24370;51.986;4.666;2022-10-16T11:44:06;4.20;;;1.30;;
38615;SDS011;24370;51.986;4.666;2022-10-16T11:46:57;13.30;;;1.70;;
38615;SDS011;24370;51.986;4.666;2022-10-16T11:49:34;7.10;;;1.67;;
38615;SDS011;24370;51.986;4.666;2022-10-16T11:54:56;7.75;;;2.13;;
38615;SDS011;24370;51.986;4.666;2022-10-16T11:57:28;10.15;;;1.52;;
38615;SDS011;24370;51.986;4.666;2022-10-16T12:00:08;11.85;;;1.75;;
38615;SDS011;24370;51.986;4.666;2022-10-16T12:02:50;12.88;;;1.50;;
38615;SDS011;24370;51.986;4.666;2022-10-16T12:07:53;13.82;;;1.55;;
38615;SDS011;24370;51.986;4.666;2022-10-16T12:12:47;10.73;;;1.92;;
38615;SDS011;24370;51.986;4.666;2022-10-16T12:17:45;8.38;;;1.20;;
38615;SDS011;24370;51.986;4.666;2022-10-16T12:22:36;10.02;;;1.83;;
38615;SDS011;24370;51.986;4.666;2022-10-16T12:25:17;8.60;;;1.92;;
38615;SDS011;24370;51.986;4.666;2022-10-16T12:27:45;7.68;;;1.90;;
38615;SDS011;24370;51.986;4.666;2022-10-16T12:30:30;9.73;;;1.83;;
38615;SDS011;24370;51.986;4.666;2022-10-16T12:33:02;6.65;;;1.80;;
38615;SDS011;24370;51.986;4.666;2022-10-16T12:35:31;8.57;;;1.50;;
38615;SDS011;24370;51.986;4.666;2022-10-16T12:38:44;9.63;;;1.27;;
38615;SDS011;24370;51.986;4.666;2022-10-16T12:41:09;14.75;;;2.15;;
38615;SDS011;24370;51.986;4.666;2022-10-16T12:46:05;9.20;;;1.20;;
38615;SDS011;24370;51.986;4.666;2022-10-16T12:48:47;10.18;;;1.80;;
38615;SDS011;24370;51.986;4.666;2022-10-16T13:02:18;11.02;;;1.55;;
38615;SDS011;24370;51.986;4.666;2022-10-16T13:20:59;16.08;;;1.90;;
38615;SDS011;24370;51.986;4.666;2022-10-16T13:23:49;21.50;;;2.17;;
38615;SDS011;24370;51.986;4.666;2022-10-16T13:26:28;10.30;;;2.55;;
38615;SDS011;24370;51.986;4.666;2022-10-16T13:29:05;10.05;;;1.63;;
38615;SDS011;24370;51.986;4.666;2022-10-16T13:31:30;13.30;;;1.50;;
38615;SDS011;24370;51.986;4.666;2022-10-16T13:33:58;13.40;;;1.80;;
38615;SDS011;24370;51.986;4.666;2022-10-16T13:36:28;10.63;;;1.77;;
38615;SDS011;24370;51.986;4.666;2022-10-16T13:39:00;9.70;;;1.98;;
38615;SDS011;24370;51.986;4.666;2022-10-16T13:41:46;15.05;;;2.15;;
38615;SDS011;24370;51.986;4.666;2022-10-16T13:44:23;7.38;;;1.50;;
38615;SDS011;24370;51.986;4.666;2022-10-16T13:46:57;8.93;;;1.45;;
38615;SDS011;24370;51.986;4.666;2022-10-16T13:49:24;10.57;;;1.70;;
38615;SDS011;24370;51.986;4.666;2022-10-16T13:51:56;12.50;;;1.45;;
38615;SDS011;24370;51.986;4.666;2022-10-16T13:54:24;9.88;;;1.88;;
38615;SDS011;24370;51.986;4.666;2022-10-16T13:56:50;10.18;;;1.80;;
38615;SDS011;24370;51.986;4.666;2022-10-16T13:59:23;10.57;;;1.60;;
38615;SDS011;24370;51.986;4.666;2022-10-16T14:01:58;9.85;;;1.83;;
38615;SDS011;24370;51.986;4.666;2022-10-16T14:04:24;12.90;;;2.13;;
38615;SDS011;24370;51.986;4.666;2022-10-16T14:06:54;18.17;;;1.73;;
38615;SDS011;24370;51.986;4.666;2022-10-16T14:11:48;11.27;;;1.88;;
38615;SDS011;24370;51.986;4.666;2022-10-16T14:14:16;9.27;;;1.63;;
38615;SDS011;24370;51.986;4.666;2022-10-16T14:16:43;23.05;;;3.17;;
38615;SDS011;24370;51.986;4.666;2022-10-16T14:19:14;9.90;;;1.85;;
38615;SDS011;24370;51.986;4.666;2022-10-16T14:21:49;12.35;;;2.10;;
38615;SDS011;24370;51.986;4.666;2022-10-16T14:24:24;14.27;;;1.85;;
38615;SDS011;24370;51.986;4.666;2022-10-16T14:26:58;9.68;;;2.28;;
38615;SDS011;24370;51.986;4.666;2022-10-16T14:29:25;9.18;;;1.65;;
38615;SDS011;24370;51.986;4.666;2022-10-16T14:36:58;18.17;;;2.17;;
38615;SDS011;24370;51.986;4.666;2022-10-16T14:39:33;10.43;;;1.80;;
38615;SDS011;24370;51.986;4.666;2022-10-16T14:41:59;19.73;;;1.98;;
38615;SDS011;24370;51.986;4.666;2022-10-16T14:44:32;10.82;;;1.83;;
38615;SDS011;24370;51.986;4.666;2022-10-16T14:46:58;8.98;;;1.55;;
38615;SDS011;24370;51.986;4.666;2022-10-16T14:49:33;9.43;;;2.00;;
38615;SDS011;24370;51.986;4.666;2022-10-16T14:51:59;11.00;;;2.15;;
38615;SDS011;24370;51.986;4.666;2022-10-16T14:54:24;12.35;;;2.40;;
38615;SDS011;24370;51.986;4.666;2022-10-16T14:56:51;9.70;;;1.92;;
38615;SDS011;24370;51.986;4.666;2022-10-16T14:59:29;8.05;;;1.80;;
38615;SDS011;24370;51.986;4.666;2022-10-16T15:01:57;10.80;;;1.45;;
38615;SDS011;24370;51.986;4.666;2022-10-16T15:04:22;13.05;;;1.73;;
38615;SDS011;24370;51.986;4.666;2022-10-16T15:06:48;10.82;;;1.73;;
38615;SDS011;24370;51.986;4.666;2022-10-16T15:09:13;13.25;;;1.77;;
38615;SDS011;24370;51.986;4.666;2022-10-16T15:11:38;7.38;;;1.92;;
38615;SDS011;24370;51.986;4.666;2022-10-16T15:14:04;16.48;;;2.28;;
38615;SDS011;24370;51.986;4.666;2022-10-16T15:16:31;14.65;;;2.30;;
38615;SDS011;24370;51.986;4.666;2022-10-16T15:18:57;15.40;;;2.90;;
38615;SDS011;24370;51.986;4.666;2022-10-16T15:21:29;12.73;;;2.42;;
38615;SDS011;24370;51.986;4.666;2022-10-16T15:23:57;15.23;;;2.10;;
38615;SDS011;24370;51.986;4.666;2022-10-16T15:26:24;13.48;;;1.80;;
38615;SDS011;24370;51.986;4.666;2022-10-16T15:28:50;11.57;;;2.05;;
38615;SDS011;24370;51.986;4.666;2022-10-16T15:31:16;13.38;;;2.22;;
38615;SDS011;24370;51.986;4.666;2022-10-16T15:33:42;8.02;;;1.58;;
38615;SDS011;24370;51.986;4.666;2022-10-16T15:36:07;9.68;;;1.80;;
38615;SDS011;24370;51.986;4.666;2022-10-16T15:38:33;12.93;;;1.70;;
38615;SDS011;24370;51.986;4.666;2022-10-16T15:40:58;9.02;;;1.80;;
38615;SDS011;24370;51.986;4.666;2022-10-16T15:43:23;14.38;;;2.13;;
38615;SDS011;24370;51.986;4.666;2022-10-16T15:45:58;17.48;;;2.15;;
38615;SDS011;24370;51.986;4.666;2022-10-16T15:48:24;7.65;;;1.98;;
38615;SDS011;24370;51.986;4.666;2022-10-16T15:50:49;12.82;;;2.30;;
38615;SDS011;24370;51.986;4.666;2022-10-16T15:53:14;8.38;;;1.98;;
38615;SDS011;24370;51.986;4.666;2022-10-16T15:55:40;14.98;;;3.00;;
38615;SDS011;24370;51.986;4.666;2022-10-16T15:58:05;16.50;;;2.78;;
38615;SDS011;24370;51.986;4.666;2022-10-16T16:00:30;9.77;;;2.38;;
38615;SDS011;24370;51.986;4.666;2022-10-16T16:02:56;9.27;;;2.47;;
38615;SDS011;24370;51.986;4.666;2022-10-16T16:05:22;12.57;;;2.80;;
38615;SDS011;24370;51.986;4.666;2022-10-16T16:07:49;17.55;;;2.70;;
38615;SDS011;24370;51.986;4.666;2022-10-16T16:10:15;16.15;;;2.88;;
38615;SDS011;24370;51.986;4.666;2022-10-16T16:12:41;13.13;;;3.15;;
38615;SDS011;24370;51.986;4.666;2022-10-16T16:15:07;13.02;;;2.97;;
38615;SDS011;24370;51.986;4.666;2022-10-16T16:17:34;11.40;;;3.00;;
38615;SDS011;24370;51.986;4.666;2022-10-16T16:20:01;11.75;;;2.30;;
38615;SDS011;24370;51.986;4.666;2022-10-16T16:22:27;11.63;;;2.22;;
38615;SDS011;24370;51.986;4.666;2022-10-16T16:24:52;16.38;;;2.33;;
38615;SDS011;24370;51.986;4.666;2022-10-16T16:27:18;12.90;;;2.28;;
38615;SDS011;24370;51.986;4.666;2022-10-16T16:29:44;11.38;;;2.42;;
38615;SDS011;24370;51.986;4.666;2022-10-16T16:32:10;11.13;;;1.80;;
38615;SDS011;24370;51.986;4.666;2022-10-16T16:34:35;9.70;;;2.25;;
38615;SDS011;24370;51.986;4.666;2022-10-16T16:37:01;13.07;;;2.78;;
38615;SDS011;24370;51.986;4.666;2022-10-16T16:39:28;12.27;;;2.60;;
38615;SDS011;24370;51.986;4.666;2022-10-16T16:41:55;12.45;;;2.88;;
38615;SDS011;24370;51.986;4.666;2022-10-16T16:44:21;12.95;;;3.30;;
38615;SDS011;24370;51.986;4.666;2022-10-16T16:46:46;18.50;;;3.55;;
38615;SDS011;24370;51.986;4.666;2022-10-16T16:49:12;8.60;;;2.60;;
38615;SDS011;24370;51.986;4.666;2022-10-16T16:51:39;14.30;;;4.93;;
38615;SDS011;24370;51.986;4.666;2022-10-16T16:54:05;12.60;;;2.95;;
38615;SDS011;24370;51.986;4.666;2022-10-16T16:56:32;9.38;;;2.75;;
38615;SDS011;24370;51.986;4.666;2022-10-16T16:58:57;8.63;;;2.63;;
38615;SDS011;24370;51.986;4.666;2022-10-16T17:01:24;15.25;;;2.38;;
38615;SDS011;24370;51.986;4.666;2022-10-16T17:03:51;12.23;;;2.28;;
38615;SDS011;24370;51.986;4.666;2022-10-16T17:06:24;15.70;;;2.47;;
38615;SDS011;24370;51.986;4.666;2022-10-16T17:08:54;7.32;;;2.25;;